createdAt,value
2022-11-28T00:01:19.090Z,23.77
2022-11-28T00:06:12.352Z,22.75
2022-11-28T00:08:38.875Z,23.42
2022-11-28T00:11:08.532Z,26.45
2022-11-28T00:13:36.150Z,24.48
2022-11-28T00:16:04.966Z,23.90
2022-11-28T00:18:31.613Z,30.10
2022-11-28T00:21:10.074Z,30.08
2022-11-28T00:23:36.524Z,25.70
2022-11-28T00:26:11.655Z,27.42
2022-11-28T00:28:38.288Z,22.70
2022-11-28T00:31:05.070Z,21.95
2022-11-28T00:33:33.088Z,32.78
2022-11-28T00:36:05.882Z,23.42
2022-11-28T00:38:32.279Z,23.02
2022-11-28T00:40:59.731Z,21.83
2022-11-28T00:43:26.224Z,19.92
2022-11-28T00:45:52.674Z,25.05
2022-11-28T00:48:19.493Z,18.08
2022-11-28T00:50:46.342Z,21.52
2022-11-28T00:53:12.849Z,20.45
2022-11-28T00:55:39.982Z,25.05
2022-11-28T00:58:07.028Z,24.58
2022-11-28T01:00:34.139Z,20.58
2022-11-28T01:03:00.572Z,25.15
2022-11-28T01:05:27.000Z,23.42
2022-11-28T01:07:53.655Z,21.13
2022-11-28T01:10:21.263Z,18.65
2022-11-28T01:12:47.872Z,21.33
2022-11-28T01:15:14.492Z,22.90
2022-11-28T01:17:41.921Z,19.88
2022-11-28T01:20:09.281Z,21.23
2022-11-28T01:22:35.726Z,22.95
2022-11-28T01:25:02.161Z,33.42
2022-11-28T01:27:28.602Z,32.55
2022-11-28T01:29:55.214Z,32.03
2022-11-28T01:32:21.641Z,26.70
2022-11-28T01:34:48.069Z,30.35
2022-11-28T01:37:14.559Z,43.05
2022-11-28T01:39:40.990Z,28.77
2022-11-28T01:42:07.401Z,29.27
2022-11-28T01:44:33.851Z,22.67
2022-11-28T01:47:00.289Z,27.30
2022-11-28T01:49:34.612Z,22.45
2022-11-28T01:52:20.083Z,23.48
2022-11-28T01:54:52.249Z,29.77
2022-11-28T01:57:22.320Z,23.42
2022-11-28T01:59:58.242Z,25.50
2022-11-28T02:02:34.722Z,24.45
2022-11-28T02:05:01.294Z,23.88
2022-11-28T02:07:27.811Z,24.73
2022-11-28T02:09:54.837Z,34.67
2022-11-28T02:12:46.277Z,27.58
2022-11-28T02:15:25.408Z,27.08
2022-11-28T02:18:25.780Z,26.17
2022-11-28T02:21:04.473Z,29.02
2022-11-28T02:23:56.527Z,27.75
2022-11-28T02:26:58.472Z,30.58
2022-11-28T02:29:38.703Z,23.23
2022-11-28T02:32:25.030Z,31.42
2022-11-28T02:35:22.224Z,30.95
2022-11-28T02:38:11.561Z,35.42
2022-11-28T02:40:53.266Z,28.17
2022-11-28T02:43:33.255Z,25.13
2022-11-28T02:46:17.175Z,24.23
2022-11-28T02:49:04.408Z,25.55
2022-11-28T02:51:52.770Z,28.40
2022-11-28T02:54:21.057Z,27.67
2022-11-28T02:56:52.757Z,19.58
2022-11-28T02:59:31.316Z,26.52
2022-11-28T03:01:58.982Z,24.65
2022-11-28T03:05:02.789Z,25.95
2022-11-28T03:08:14.218Z,26.48
2022-11-28T03:10:59.228Z,31.15
2022-11-28T03:13:41.765Z,20.77
2022-11-28T03:16:22.622Z,27.42
2022-11-28T03:19:16.413Z,25.02
2022-11-28T03:21:50.933Z,21.88
2022-11-28T03:24:27.882Z,26.38
2022-11-28T03:27:19.208Z,27.33
2022-11-28T03:30:00.427Z,19.77
2022-11-28T03:32:33.771Z,21.33
2022-11-28T03:35:08.443Z,28.92
2022-11-28T03:37:40.688Z,22.75
2022-11-28T03:40:12.432Z,29.35
2022-11-28T03:42:43.560Z,27.23
2022-11-28T03:45:25.553Z,24.70
2022-11-28T03:48:06.627Z,19.73
2022-11-28T03:50:41.807Z,21.25
2022-11-28T03:53:37.594Z,26.00
2022-11-28T03:56:22.862Z,24.95
2022-11-28T03:58:59.251Z,20.10
2022-11-28T04:01:35.236Z,21.67
2022-11-28T04:04:31.658Z,20.95
2022-11-28T04:07:16.797Z,26.48
2022-11-28T04:10:00.487Z,21.15
2022-11-28T04:12:52.879Z,22.75
2022-11-28T04:15:40.865Z,26.10
2022-11-28T04:18:13.439Z,23.40
2022-11-28T04:20:46.198Z,20.42
2022-11-28T04:23:16.993Z,19.63
2022-11-28T04:25:50.904Z,30.20
2022-11-28T04:28:22.344Z,24.52
2022-11-28T04:33:20.877Z,22.13
2022-11-28T04:35:53.224Z,21.30
2022-11-28T04:38:22.691Z,22.83
2022-11-28T04:41:18.396Z,22.77
2022-11-28T04:43:52.080Z,24.17
2022-11-28T04:46:25.173Z,24.65
2022-11-28T04:48:51.736Z,22.08
2022-11-28T04:51:27.384Z,22.95
2022-11-28T04:54:19.915Z,24.00
2022-11-28T04:57:01.462Z,24.27
2022-11-28T05:01:58.604Z,29.30
2022-11-28T05:04:25.303Z,37.38
2022-11-28T05:07:02.297Z,26.85
2022-11-28T05:09:28.735Z,34.00
2022-11-28T05:11:55.200Z,37.70
2022-11-28T05:14:22.188Z,25.90
2022-11-28T05:16:48.831Z,31.58
2022-11-28T05:19:15.869Z,27.58
2022-11-28T05:21:42.454Z,25.90
2022-11-28T05:24:09.391Z,20.55
2022-11-28T05:26:35.894Z,28.33
2022-11-28T05:29:02.545Z,19.98
2022-11-28T05:31:29.294Z,19.23
2022-11-28T05:33:56.013Z,18.35
2022-11-28T05:36:22.975Z,19.60
2022-11-28T05:38:50.325Z,18.92
2022-11-28T05:41:26.253Z,16.92
2022-11-28T05:43:53.260Z,17.98
2022-11-28T05:46:20.160Z,17.75
2022-11-28T05:48:46.693Z,16.90
2022-11-28T05:51:13.201Z,18.50
2022-11-28T05:53:39.610Z,17.65
2022-11-28T05:56:11.146Z,16.85
2022-11-28T05:58:37.693Z,16.88
2022-11-28T06:01:13.953Z,17.52
2022-11-28T06:03:41.493Z,17.00
2022-11-28T06:06:20.494Z,16.98
2022-11-28T06:08:48.779Z,14.45
2022-11-28T06:11:16.074Z,16.27
2022-11-28T06:13:43.532Z,19.27
2022-11-28T06:16:11.904Z,17.50
2022-11-28T06:18:39.852Z,17.13
2022-11-28T06:21:09.538Z,16.17
2022-11-28T06:23:36.859Z,14.98
2022-11-28T06:26:08.467Z,14.75
2022-11-28T06:28:35.521Z,15.05
2022-11-28T06:31:02.375Z,16.00
2022-11-28T06:33:29.592Z,13.77
2022-11-28T06:36:00.963Z,15.70
2022-11-28T06:40:59.900Z,15.02
2022-11-28T06:43:26.931Z,14.43
2022-11-28T06:45:53.652Z,15.20
2022-11-28T06:48:20.594Z,15.38
2022-11-28T06:50:47.646Z,15.88
2022-11-28T06:53:14.576Z,15.82
2022-11-28T06:55:41.362Z,16.42
2022-11-28T06:58:07.874Z,15.40
2022-11-28T07:00:35.102Z,16.67
2022-11-28T07:03:01.516Z,15.68
2022-11-28T07:05:28.619Z,16.05
2022-11-28T07:07:55.054Z,16.15
2022-11-28T07:10:22.183Z,14.55
2022-11-28T07:12:54.079Z,16.83
2022-11-28T07:15:20.617Z,15.13
2022-11-28T07:17:47.049Z,15.90
2022-11-28T07:20:13.920Z,15.98
2022-11-28T07:22:40.358Z,15.75
2022-11-28T07:25:07.415Z,16.52
2022-11-28T07:27:34.068Z,18.88
2022-11-28T07:30:00.486Z,16.40
2022-11-28T07:32:26.949Z,17.40
2022-11-28T07:34:53.838Z,17.83
2022-11-28T07:37:20.368Z,19.98
2022-11-28T07:39:47.484Z,16.77
2022-11-28T07:42:13.936Z,17.90
2022-11-28T07:44:40.774Z,17.75
2022-11-28T07:47:07.223Z,18.35
2022-11-28T07:49:33.632Z,15.80
2022-11-28T07:52:01.086Z,16.80
2022-11-28T07:54:27.496Z,15.88
2022-11-28T07:59:40.735Z,16.38
2022-11-28T08:02:09.045Z,15.80
2022-11-28T08:04:36.679Z,15.38
2022-11-28T08:07:03.216Z,15.95
2022-11-28T08:09:31.576Z,21.58
2022-11-28T08:11:58.681Z,23.30
2022-11-28T08:14:25.310Z,21.67
2022-11-28T08:16:52.388Z,19.80
2022-11-28T08:19:22.951Z,17.48
2022-11-28T08:21:51.096Z,19.10
2022-11-28T08:24:17.572Z,18.63
2022-11-28T08:26:44.047Z,19.73
2022-11-28T08:29:10.979Z,17.92
2022-11-28T08:31:38.708Z,19.75
2022-11-28T08:34:08.499Z,19.23
2022-11-28T08:36:35.031Z,25.52
2022-11-28T08:39:22.765Z,17.17
2022-11-28T08:41:49.782Z,19.83
2022-11-28T08:44:16.296Z,19.83
2022-11-28T08:46:42.750Z,21.63
2022-11-28T08:49:09.181Z,21.25
2022-11-28T08:51:36.508Z,20.73
2022-11-28T08:54:02.999Z,23.45
2022-11-28T08:56:29.438Z,24.25
2022-11-28T08:58:55.996Z,20.65
2022-11-28T09:01:26.766Z,22.20
2022-11-28T09:03:54.726Z,25.30
2022-11-28T09:06:22.291Z,22.73
2022-11-28T09:08:50.120Z,33.47
2022-11-28T09:11:18.395Z,22.23
2022-11-28T09:13:45.134Z,24.98
2022-11-28T09:16:12.616Z,25.08
2022-11-28T09:18:39.048Z,23.60
2022-11-28T09:21:11.707Z,25.05
2022-11-28T09:23:41.040Z,28.23
2022-11-28T09:26:12.648Z,22.67
2022-11-28T09:28:39.039Z,23.48
2022-11-28T09:31:07.516Z,22.95
2022-11-28T09:33:35.069Z,23.75
2022-11-28T09:36:10.452Z,25.17
2022-11-28T09:38:37.342Z,25.05
2022-11-28T09:41:16.603Z,27.80
2022-11-28T09:43:44.943Z,27.75
2022-11-28T09:46:17.903Z,28.42
2022-11-28T09:48:52.029Z,27.02
2022-11-28T09:51:31.242Z,26.60
2022-11-28T09:54:34.745Z,29.45
2022-11-28T09:57:03.638Z,31.42
2022-11-28T09:59:30.507Z,24.83
2022-11-28T10:02:21.906Z,26.23
2022-11-28T10:04:59.386Z,25.88
2022-11-28T10:07:33.077Z,30.70
2022-11-28T10:10:33.579Z,24.50
2022-11-28T10:13:18.805Z,25.00
2022-11-28T10:16:13.143Z,24.52
2022-11-28T10:18:54.679Z,25.83
2022-11-28T10:21:31.221Z,25.60
2022-11-28T10:24:05.891Z,25.65
2022-11-28T10:26:37.082Z,28.15
2022-11-28T10:29:27.581Z,25.60
2022-11-28T10:31:57.391Z,24.55
2022-11-28T10:34:31.163Z,23.98
2022-11-28T10:37:03.425Z,24.42
2022-11-28T10:39:29.867Z,24.17
2022-11-28T10:42:13.695Z,23.73
2022-11-28T10:44:56.337Z,24.35
2022-11-28T10:47:41.183Z,22.20
2022-11-28T10:50:33.664Z,27.27
2022-11-28T10:53:09.003Z,22.55
2022-11-28T10:55:58.954Z,22.10
2022-11-28T10:58:51.300Z,22.75
2022-11-28T11:01:17.876Z,22.70
2022-11-28T11:03:44.516Z,22.27
2022-11-28T11:06:11.089Z,21.67
2022-11-28T11:08:39.611Z,23.02
2022-11-28T11:11:18.740Z,23.45
2022-11-28T11:14:09.411Z,21.10
2022-11-28T11:16:55.785Z,23.30
2022-11-28T11:19:36.886Z,21.85
2022-11-28T11:22:12.497Z,23.13
2022-11-28T11:24:38.933Z,22.10
2022-11-28T11:27:25.639Z,21.92
2022-11-28T11:29:53.353Z,21.17
2022-11-28T11:32:25.110Z,23.75
2022-11-28T11:37:20.617Z,22.15
2022-11-28T11:39:51.842Z,21.92
2022-11-28T11:42:24.837Z,21.35
2022-11-28T11:44:51.777Z,21.48
2022-11-28T11:47:19.156Z,23.17
2022-11-28T11:49:49.651Z,20.88
2022-11-28T11:52:24.210Z,20.37
2022-11-28T11:54:59.403Z,20.58
2022-11-28T11:57:36.937Z,20.20
2022-11-28T12:00:10.846Z,19.60
2022-11-28T12:02:45.709Z,19.17
2022-11-28T12:05:21.208Z,19.67
2022-11-28T12:07:58.754Z,18.20
2022-11-28T12:10:29.711Z,18.85
2022-11-28T12:12:56.772Z,20.77
2022-11-28T12:15:59.193Z,19.42
2022-11-28T12:18:51.551Z,19.08
2022-11-28T12:22:12.992Z,17.67
2022-11-28T12:24:59.568Z,17.88
2022-11-28T12:27:41.240Z,16.95
2022-11-28T12:30:24.776Z,18.25
2022-11-28T12:33:05.380Z,21.95
2022-11-28T12:35:39.946Z,20.63
2022-11-28T12:38:20.808Z,21.63
2022-11-28T12:41:27.517Z,22.48
2022-11-28T12:44:09.032Z,19.63
2022-11-28T12:46:49.890Z,21.02
2022-11-28T12:49:41.199Z,20.10
2022-11-28T12:52:45.667Z,17.38
2022-11-28T12:55:36.837Z,17.52
2022-11-28T12:58:18.693Z,17.80
2022-11-28T13:01:17.066Z,18.73
2022-11-28T13:04:06.544Z,18.50
2022-11-28T13:06:56.717Z,19.80
2022-11-28T13:09:31.651Z,19.40
2022-11-28T13:12:22.532Z,20.35
2022-11-28T13:14:58.884Z,20.42
2022-11-28T13:17:40.957Z,21.67
2022-11-28T13:20:52.866Z,21.50
2022-11-28T13:26:07.802Z,23.48
2022-11-28T13:28:54.698Z,22.48
2022-11-28T13:32:01.704Z,19.55
2022-11-28T13:34:29.927Z,21.73
2022-11-28T13:40:07.649Z,21.42
2022-11-28T13:43:12.988Z,24.08
2022-11-28T13:45:44.400Z,22.38
2022-11-28T13:51:19.316Z,19.23
2022-11-28T13:53:49.480Z,21.80
2022-11-28T13:56:24.944Z,22.15
2022-11-28T13:59:00.709Z,22.40
2022-11-28T14:01:44.264Z,22.00
2022-11-28T14:04:17.318Z,23.90
2022-11-28T14:06:52.257Z,25.30
2022-11-28T14:09:36.908Z,25.23
2022-11-28T14:12:29.787Z,24.83
2022-11-28T14:15:08.420Z,25.77
2022-11-28T14:17:50.905Z,25.02
2022-11-28T14:20:36.398Z,24.52
2022-11-28T14:23:41.645Z,26.25
2022-11-28T14:26:32.008Z,25.10
2022-11-28T14:28:59.143Z,26.60
2022-11-28T14:31:31.750Z,27.92
2022-11-28T14:34:03.545Z,25.98
2022-11-28T14:36:36.127Z,24.65
2022-11-28T14:39:16.272Z,26.85
2022-11-28T14:42:02.620Z,26.65
2022-11-28T14:44:52.859Z,29.17
2022-11-28T14:47:31.986Z,30.27
2022-11-28T14:50:04.467Z,32.70
2022-11-28T14:52:39.828Z,32.63
2022-11-28T14:55:08.058Z,31.52
2022-11-28T14:57:37.686Z,33.60
2022-11-28T15:00:16.379Z,32.65
2022-11-28T15:03:12.512Z,36.17
2022-11-28T15:05:47.704Z,34.08
2022-11-28T15:08:58.932Z,35.80
2022-11-28T15:11:58.713Z,35.33
2022-11-28T15:14:28.705Z,34.65
2022-11-28T15:17:00.377Z,36.22
2022-11-28T15:19:31.919Z,37.88
2022-11-28T15:22:01.075Z,39.47
2022-11-28T15:24:27.522Z,38.30
2022-11-28T15:26:57.764Z,41.38
2022-11-28T15:29:27.238Z,43.87
2022-11-28T15:31:57.088Z,45.45
2022-11-28T15:34:27.432Z,45.58
2022-11-28T15:36:56.207Z,47.08
2022-11-28T15:39:34.959Z,38.25
2022-11-28T15:42:04.620Z,39.33
2022-11-28T15:44:32.196Z,39.10
2022-11-28T15:46:58.782Z,40.10
2022-11-28T15:49:31.747Z,37.70
2022-11-28T15:52:01.250Z,39.53
2022-11-28T15:54:41.727Z,40.10
2022-11-28T15:57:20.321Z,39.30
2022-11-28T15:59:47.245Z,38.22
2022-11-28T16:02:30.619Z,39.05
2022-11-28T16:05:20.945Z,39.38
2022-11-28T16:07:50.178Z,39.67
2022-11-28T16:10:21.888Z,40.58
2022-11-28T16:12:48.964Z,38.88
2022-11-28T16:15:20.601Z,39.47
2022-11-28T16:17:47.214Z,38.85
2022-11-28T16:20:29.764Z,44.15
2022-11-28T16:22:59.516Z,43.00
2022-11-28T16:25:27.528Z,41.10
2022-11-28T16:27:57.210Z,45.22
2022-11-28T16:30:24.053Z,43.20
2022-11-28T16:32:52.292Z,45.38
2022-11-28T16:35:38.776Z,44.20
2022-11-28T16:38:18.841Z,45.08
2022-11-28T16:40:45.331Z,42.65
2022-11-28T16:43:37.528Z,48.85
2022-11-28T16:46:06.753Z,54.30
2022-11-28T16:48:38.644Z,46.92
2022-11-28T16:51:11.575Z,43.55
2022-11-28T16:53:48.239Z,43.45
2022-11-28T16:56:29.699Z,40.83
2022-11-28T17:01:30.282Z,40.05
2022-11-28T17:03:57.707Z,40.72
2022-11-28T17:06:39.394Z,39.88
2022-11-28T17:09:09.259Z,40.22
2022-11-28T17:11:37.692Z,38.30
2022-11-28T17:14:10.160Z,39.88
2022-11-28T17:16:40.501Z,38.95
2022-11-28T17:19:07.094Z,41.00
2022-11-28T17:21:42.037Z,38.10
2022-11-28T17:24:17.139Z,33.05
2022-11-28T17:26:43.779Z,33.92
2022-11-28T17:29:12.518Z,33.83
2022-11-28T17:31:42.144Z,35.78
2022-11-28T17:34:24.025Z,42.63
2022-11-28T17:36:51.226Z,37.25
2022-11-28T17:39:19.063Z,36.03
2022-11-28T17:41:46.923Z,35.90
2022-11-28T17:44:24.891Z,42.20
2022-11-28T17:46:52.820Z,40.38
2022-11-28T17:49:20.123Z,36.83
2022-11-28T17:51:48.600Z,34.35
2022-11-28T17:54:17.746Z,34.97
2022-11-28T17:56:54.296Z,35.20
2022-11-28T17:59:23.674Z,33.90
2022-11-28T18:01:50.510Z,34.38
2022-11-28T18:04:22.996Z,34.55
2022-11-28T18:06:49.781Z,32.20
2022-11-28T18:09:16.340Z,32.97
2022-11-28T18:11:43.543Z,32.97
2022-11-28T18:14:10.171Z,32.25
2022-11-28T18:16:39.554Z,32.42
2022-11-28T18:19:06.301Z,31.58
2022-11-28T18:21:33.024Z,32.55
2022-11-28T18:23:59.580Z,34.45
2022-11-28T18:26:26.492Z,30.83
2022-11-28T18:28:53.982Z,29.98
2022-11-28T18:31:23.445Z,32.22
2022-11-28T18:33:50.146Z,31.83
2022-11-28T18:36:22.604Z,29.02
2022-11-28T18:38:49.146Z,28.50
2022-11-28T18:41:17.648Z,26.75
2022-11-28T18:43:45.157Z,27.83
2022-11-28T18:46:19.050Z,27.90
2022-11-28T18:48:47.185Z,37.60
2022-11-28T18:51:18.135Z,28.42
2022-11-28T18:53:45.451Z,27.58
2022-11-28T18:56:13.179Z,29.13
2022-11-28T18:58:42.362Z,29.05
2022-11-28T19:01:15.039Z,31.58
2022-11-28T19:03:42.567Z,30.65
2022-11-28T19:06:12.052Z,31.63
2022-11-28T19:08:39.422Z,33.88
2022-11-28T19:11:09.609Z,33.22
2022-11-28T19:13:37.054Z,31.48
2022-11-28T19:16:07.832Z,33.00
2022-11-28T19:18:36.088Z,32.83
2022-11-28T19:21:06.823Z,32.88
2022-11-28T19:23:33.985Z,34.60
2022-11-28T19:26:04.908Z,32.30
2022-11-28T19:28:31.435Z,34.00
2022-11-28T19:31:08.116Z,32.60
2022-11-28T19:33:35.037Z,33.67
2022-11-28T19:36:06.916Z,45.80
2022-11-28T19:38:34.811Z,44.47
2022-11-28T19:41:12.372Z,40.80
2022-11-28T19:43:39.002Z,37.67
2022-11-28T19:46:06.212Z,35.42
2022-11-28T19:48:35.201Z,32.92
2022-11-28T19:51:03.811Z,29.30
2022-11-28T19:53:32.216Z,27.55
2022-11-28T19:56:03.502Z,27.63
2022-11-28T19:58:31.535Z,27.42
2022-11-28T20:01:10.439Z,27.33
2022-11-28T20:03:38.616Z,27.58
2022-11-28T20:06:20.352Z,27.95
2022-11-28T20:08:48.886Z,27.27
2022-11-28T20:11:23.623Z,27.17
2022-11-28T20:13:55.293Z,28.60
2022-11-28T20:16:21.876Z,27.42
2022-11-28T20:18:48.400Z,28.33
2022-11-28T20:21:17.792Z,26.48
2022-11-28T20:23:55.821Z,26.40
2022-11-28T20:26:26.186Z,25.63
2022-11-28T20:28:55.580Z,27.17
2022-11-28T20:31:36.412Z,26.98
2022-11-28T20:34:05.994Z,26.63
2022-11-28T20:36:34.224Z,25.52
2022-11-28T20:39:01.106Z,27.95
2022-11-28T20:41:28.724Z,27.60
2022-11-28T20:43:56.098Z,27.70
2022-11-28T20:46:27.056Z,26.92
2022-11-28T20:48:53.975Z,28.83
2022-11-28T20:51:24.759Z,26.60
2022-11-28T20:53:52.189Z,29.55
2022-11-28T20:56:21.544Z,32.25
2022-11-28T20:58:48.751Z,32.47
2022-11-28T21:01:17.936Z,28.48
2022-11-28T21:03:44.475Z,26.83
2022-11-28T21:06:11.133Z,30.80
2022-11-28T21:08:37.577Z,27.27
2022-11-28T21:11:25.600Z,29.08
2022-11-28T21:13:57.722Z,29.02
2022-11-28T21:16:29.144Z,28.83
2022-11-28T21:21:26.631Z,24.60
2022-11-28T21:23:57.873Z,27.13
2022-11-28T21:26:30.251Z,28.90
2022-11-28T21:29:00.371Z,24.48
2022-11-28T21:31:30.068Z,24.38
2022-11-28T21:33:58.162Z,23.70
2022-11-28T21:36:25.433Z,24.95
2022-11-28T21:38:54.134Z,24.42
2022-11-28T21:41:21.854Z,25.35
2022-11-28T21:43:49.409Z,25.20
2022-11-28T21:46:15.955Z,26.35
2022-11-28T21:48:43.085Z,24.17
2022-11-28T21:51:18.892Z,22.58
2022-11-28T21:53:45.616Z,26.30
2022-11-28T21:56:12.562Z,23.60
2022-11-28T21:58:39.107Z,22.30
2022-11-28T22:01:11.607Z,23.45
2022-11-28T22:03:38.928Z,21.92
2022-11-28T22:06:08.732Z,22.02
2022-11-28T22:08:35.753Z,20.67
2022-11-28T22:11:08.490Z,23.42
2022-11-28T22:13:35.800Z,22.65
2022-11-28T22:16:12.231Z,23.45
2022-11-28T22:18:38.692Z,22.42
2022-11-28T22:21:22.575Z,22.25
2022-11-28T22:23:53.718Z,22.20
2022-11-28T22:26:20.605Z,21.65
2022-11-28T22:28:53.199Z,22.00
2022-11-28T22:31:20.438Z,22.33
2022-11-28T22:33:49.491Z,21.48
2022-11-28T22:36:18.811Z,22.17
2022-11-28T22:38:47.304Z,21.13
2022-11-28T22:41:24.792Z,22.67
2022-11-28T22:43:56.437Z,22.15
2022-11-28T22:46:23.225Z,23.13
2022-11-28T22:48:51.705Z,22.55
2022-11-28T22:51:21.152Z,22.73
2022-11-28T22:53:47.630Z,22.23
2022-11-28T22:56:15.489Z,23.60
2022-11-28T22:58:44.323Z,25.17
2022-11-28T23:01:14.096Z,25.20
2022-11-28T23:03:40.843Z,24.55
2022-11-28T23:06:10.424Z,24.98
2022-11-28T23:08:37.231Z,23.67
2022-11-28T23:11:09.130Z,27.13
2022-11-28T23:16:13.091Z,24.70
2022-11-28T23:18:40.132Z,24.77
2022-11-28T23:21:07.553Z,25.23
2022-11-28T23:23:34.964Z,27.80
2022-11-28T23:26:11.116Z,30.27
2022-11-28T23:28:38.136Z,28.50
2022-11-28T23:31:22.807Z,27.15
2022-11-28T23:33:49.635Z,26.80
2022-11-28T23:36:17.372Z,26.52
2022-11-28T23:38:45.088Z,25.35
2022-11-28T23:41:11.971Z,25.70
2022-11-28T23:43:38.914Z,26.42
2022-11-28T23:46:05.582Z,25.15
2022-11-28T23:48:32.978Z,25.73
2022-11-28T23:50:59.506Z,26.30
2022-11-28T23:53:26.240Z,28.83
2022-11-28T23:55:52.684Z,25.38
2022-11-28T23:58:19.293Z,26.75
